KSUA

Witham Field Airport

Stuart, Florida, USA
METAR KSUA 171747Z 11009G14KT 7SM SCT025 30/23 A3012
Observed Flight Rules
Oct-17 @ 17:47 UTC (56 minutes ago) Visual Flight Rules
Wind Visibility Clouds
110° at 9 knots
 Gusting to 14 knots
7 miles
  • Scattered at 2,500' AGL
Temperatures Readings
Current 30°C / 86°F
Dewpoint 23°C / 73°F
Humidity 66%
Altimeter 30.12" Hg
Pressure 1020 hPa
Elevation 6
METAR KSUA 171747Z 11009G14KT 7SM SCT025 30/23 A3012
Observed Flight Rules
Oct-17 @ 17:47 UTC
(56 minutes ago)
VFR
Wind Visibility
110° at 9 knots
 Gusting to 14 knots
7 miles
Clouds
  • Scattered at 2,500' AGL
Temperature Dewpoint
30°C / 86°F 23°C / 73°F
Humidity Altimeter Pressure
66% 30.12" Hg 1020 hPa